Time;durP1;ratioP1;P1;durP2;ratioP2;P2;SDS_P1;SDS_P2;PMS_P1;PMS_P2;Temp;Humidity;BMP_temperature;BMP_pressure;BME280_temperature;BME280_humidity;BME280_pressure;Samples;Min_cycle;Max_cycle;Signal;HPM_P1;HPM_P2
2023/05/18 00:02:05;;;;;;;11.68;4.45;;;11.60;99.90;;;;;;5053738;28;20027;-74
2023/05/18 00:04:36;;;;;;;13.02;4.88;;;11.60;99.90;;;;;;5048952;28;20113;-74
2023/05/18 00:07:03;;;;;;;14.60;4.95;;;11.40;99.90;;;;;;5053454;28;20024;-74
2023/05/18 00:09:30;;;;;;;15.05;4.80;;;11.40;99.90;;;;;;5051148;28;20029;-74
2023/05/18 00:11:57;;;;;;;13.98;4.10;;;11.50;99.90;;;;;;5053627;28;20074;-74
2023/05/18 00:14:22;;;;;;;15.80;4.87;;;11.40;99.90;;;;;;5005195;28;1300482;-74
2023/05/18 00:16:48;;;;;;;8.45;4.25;;;11.40;99.90;;;;;;5052930;28;20378;-74
2023/05/18 00:19:15;;;;;;;14.02;4.93;;;11.30;99.90;;;;;;5052420;28;20021;-75
2023/05/18 00:21:42;;;;;;;8.48;4.32;;;11.30;99.90;;;;;;5056737;28;20028;-74
2023/05/18 00:24:09;;;;;;;9.35;4.65;;;11.30;99.90;;;;;;5054520;28;20029;-74
2023/05/18 00:26:37;;;;;;;11.25;4.18;;;11.40;99.90;;;;;;5055719;28;20527;-74
2023/05/18 00:29:03;;;;;;;14.77;4.22;;;11.30;99.90;;;;;;5054631;28;20017;-74
2023/05/18 00:31:28;;;;;;;15.45;4.47;;;11.20;99.90;;;;;;5038543;28;20049;-74
2023/05/18 00:33:54;;;;;;;11.55;4.28;;;11.10;99.90;;;;;;5049726;28;20016;-74
2023/05/18 00:36:20;;;;;;;13.82;4.07;;;11.10;99.90;;;;;;5049837;28;20029;-74
2023/05/18 00:38:45;;;;;;;11.98;4.40;;;11.10;99.90;;;;;;5056976;28;20032;-74
2023/05/18 00:41:11;;;;;;;14.48;4.78;;;11.10;99.90;;;;;;5052075;28;20452;-75
2023/05/18 00:43:40;;;;;;;12.57;4.70;;;11.00;99.90;;;;;;5052199;28;20455;-74
2023/05/18 00:46:06;;;;;;;11.52;4.03;;;10.90;99.90;;;;;;5052650;28;20035;-74
2023/05/18 00:48:31;;;;;;;14.20;4.28;;;10.90;99.90;;;;;;5054138;28;20028;-74
2023/05/18 00:50:57;;;;;;;14.05;4.72;;;11.00;99.90;;;;;;5037690;28;20343;-74
2023/05/18 00:53:23;;;;;;;16.58;4.90;;;11.00;99.90;;;;;;5051897;28;20465;-74
2023/05/18 00:55:49;;;;;;;11.63;4.53;;;11.00;99.90;;;;;;5055367;28;20036;-74
2023/05/18 00:58:15;;;;;;;10.05;4.65;;;11.00;99.90;;;;;;5055635;28;20082;-74
2023/05/18 01:00:41;;;;;;;11.75;4.47;;;11.00;99.90;;;;;;5053988;28;20017;-74
2023/05/18 01:03:09;;;;;;;14.82;4.78;;;10.80;99.90;;;;;;5053925;28;20031;-74
2023/05/18 01:05:35;;;;;;;11.80;4.80;;;10.90;99.90;;;;;;5057400;28;20024;-74
2023/05/18 01:08:01;;;;;;;17.48;4.90;;;10.80;99.90;;;;;;5055348;28;20032;-74
2023/05/18 01:10:29;;;;;;;18.33;5.15;;;10.70;99.90;;;;;;5053124;28;20029;-74
2023/05/18 01:13:01;;;;;;;14.38;4.35;;;10.70;99.90;;;;;;5051233;28;20017;-74
2023/05/18 01:15:38;;;;;;;14.88;4.63;;;10.60;99.90;;;;;;5052902;28;20032;-74
2023/05/18 01:18:31;;;;;;;10.73;5.07;;;10.60;99.90;;;;;;5056915;28;20063;-74
2023/05/18 01:21:12;;;;;;;15.68;4.80;;;10.50;99.90;;;;;;5052264;28;20395;-74
2023/05/18 01:23:43;;;;;;;10.73;4.13;;;10.70;99.90;;;;;;5037765;28;20032;-74
2023/05/18 01:26:15;;;;;;;20.33;5.03;;;10.70;99.90;;;;;;5053352;28;20029;-74
2023/05/18 01:28:45;;;;;;;14.15;3.88;;;10.70;99.90;;;;;;5058768;28;20025;-74
2023/05/18 01:31:12;;;;;;;12.55;4.15;;;10.80;99.90;;;;;;5054207;28;20100;-74
2023/05/18 01:33:38;;;;;;;13.70;4.88;;;10.70;99.90;;;;;;5052081;28;20017;-74
2023/05/18 01:36:04;;;;;;;13.77;4.35;;;10.60;99.90;;;;;;5055693;28;20090;-74
2023/05/18 01:38:31;;;;;;;14.80;4.45;;;10.70;99.90;;;;;;5053635;28;20135;-74
2023/05/18 01:41:05;;;;;;;10.60;4.70;;;10.70;99.90;;;;;;5053668;28;20037;-74
2023/05/18 01:43:34;;;;;;;13.13;4.00;;;10.60;99.90;;;;;;5053247;28;20064;-74
2023/05/18 01:46:16;;;;;;;12.90;4.97;;;10.60;99.90;;;;;;5056439;28;20016;-74
2023/05/18 01:48:54;;;;;;;12.55;4.38;;;10.50;99.90;;;;;;5055924;28;20462;-74
2023/05/18 01:51:21;;;;;;;14.77;4.68;;;10.50;99.90;;;;;;5052169;28;20021;-74
2023/05/18 01:53:59;;;;;;;11.32;5.25;;;10.50;99.90;;;;;;5050409;28;20021;-74
2023/05/18 01:56:26;;;;;;;7.25;4.10;;;10.40;99.90;;;;;;5032034;28;20074;-74
2023/05/18 01:58:52;;;;;;;14.10;5.82;;;10.40;99.90;;;;;;5053311;28;20477;-74
2023/05/18 02:01:18;;;;;;;13.80;4.38;;;10.40;99.90;;;;;;5051788;28;20025;-73
2023/05/18 02:03:44;;;;;;;13.10;4.47;;;10.30;99.90;;;;;;5053417;28;20032;-74
2023/05/18 02:06:10;;;;;;;12.13;4.43;;;10.20;99.90;;;;;;5053247;28;20021;-73
2023/05/18 02:08:36;;;;;;;12.82;4.75;;;10.30;99.90;;;;;;5052975;28;20469;-73
2023/05/18 02:11:02;;;;;;;11.50;4.22;;;10.30;99.90;;;;;;5052004;28;20021;-74
2023/05/18 02:13:28;;;;;;;13.38;4.75;;;10.20;99.90;;;;;;5048734;28;20032;-74
2023/05/18 02:15:54;;;;;;;12.18;5.00;;;10.10;99.90;;;;;;5054136;28;20018;-74
2023/05/18 02:18:20;;;;;;;16.00;4.38;;;10.10;99.90;;;;;;5056942;28;20029;-74
2023/05/18 02:20:47;;;;;;;12.13;4.90;;;10.20;99.90;;;;;;5054960;28;20021;-75
2023/05/18 02:23:14;;;;;;;10.88;4.47;;;10.20;99.90;;;;;;5043924;28;20033;-75
2023/05/18 02:25:43;;;;;;;14.45;4.35;;;10.20;99.90;;;;;;5059951;28;20079;-75
2023/05/18 02:28:08;;;;;;;12.98;4.95;;;10.10;99.90;;;;;;5059878;28;20465;-74
2023/05/18 02:30:34;;;;;;;11.98;5.10;;;10.20;99.90;;;;;;5056956;28;20024;-74
2023/05/18 02:33:00;;;;;;;9.55;4.05;;;10.10;99.90;;;;;;5060669;28;20483;-74
2023/05/18 02:35:26;;;;;;;10.95;4.88;;;10.10;99.90;;;;;;5045938;28;20020;-74
2023/05/18 02:37:52;;;;;;;9.80;4.20;;;10.20;99.90;;;;;;5056345;28;20033;-73
2023/05/18 02:40:18;;;;;;;11.13;4.40;;;10.10;99.90;;;;;;5045608;28;20496;-74
2023/05/18 02:42:44;;;;;;;12.15;4.57;;;10.00;99.90;;;;;;5056456;28;20028;-73
2023/05/18 02:45:10;;;;;;;14.48;5.40;;;10.10;99.90;;;;;;5055660;28;20078;-73
2023/05/18 02:47:35;;;;;;;15.20;5.07;;;10.10;99.90;;;;;;5060892;28;20021;-74
2023/05/18 02:50:01;;;;;;;12.68;4.55;;;10.20;99.90;;;;;;5046965;28;20036;-74
2023/05/18 02:52:27;;;;;;;17.48;4.57;;;10.20;99.90;;;;;;5054289;28;20473;-73
2023/05/18 02:54:53;;;;;;;11.30;4.35;;;10.20;99.90;;;;;;5059059;28;20028;-74
2023/05/18 02:57:20;;;;;;;12.07;4.57;;;10.20;99.90;;;;;;5046250;28;20044;-73
2023/05/18 02:59:46;;;;;;;13.02;5.18;;;10.20;99.90;;;;;;5058534;28;20025;-73
2023/05/18 03:02:15;;;;;;;10.30;4.75;;;10.10;99.90;;;;;;5062794;28;20385;-73
2023/05/18 03:04:41;;;;;;;8.43;4.78;;;10.10;99.90;;;;;;5057748;28;20504;-74
2023/05/18 03:07:07;;;;;;;12.30;4.72;;;10.10;99.90;;;;;;5045409;28;20093;-74
2023/05/18 03:09:33;;;;;;;10.80;4.97;;;10.10;99.90;;;;;;5057317;28;20032;-74
2023/05/18 03:11:59;;;;;;;9.18;4.47;;;10.00;99.90;;;;;;5062039;28;20495;-74
2023/05/18 03:14:24;;;;;;;12.60;5.10;;;10.00;99.90;;;;;;5058399;28;20493;-74
2023/05/18 03:16:53;;;;;;;12.02;4.88;;;10.10;99.90;;;;;;5065096;28;20025;-73
2023/05/18 03:19:21;;;;;;;13.40;5.20;;;10.10;99.90;;;;;;5059398;28;20029;-74
2023/05/18 03:21:48;;;;;;;8.27;5.15;;;10.10;99.90;;;;;;5060877;28;20473;-74
2023/05/18 03:24:14;;;;;;;21.15;5.35;;;10.00;99.90;;;;;;5060195;28;20061;-74
2023/05/18 03:26:43;;;;;;;12.30;5.53;;;9.90;99.90;;;;;;5059097;28;20461;-73
2023/05/18 03:29:09;;;;;;;15.38;5.53;;;9.90;99.90;;;;;;5058460;28;20033;-73
2023/05/18 03:31:36;;;;;;;11.93;5.32;;;9.80;99.90;;;;;;5051333;28;20020;-74
2023/05/18 03:34:01;;;;;;;12.43;4.85;;;9.90;99.90;;;;;;5057581;28;20499;-73
2023/05/18 03:36:27;;;;;;;12.98;5.43;;;10.00;99.90;;;;;;5060070;28;20017;-73
2023/05/18 03:38:53;;;;;;;13.35;5.03;;;9.90;99.90;;;;;;5062407;28;20032;-73
2023/05/18 03:41:19;;;;;;;17.05;5.28;;;10.00;99.90;;;;;;5059986;28;20367;-73
2023/05/18 03:43:44;;;;;;;11.77;5.15;;;9.90;99.90;;;;;;5057259;28;20128;-74
2023/05/18 03:46:10;;;;;;;14.85;5.00;;;9.90;99.90;;;;;;5051174;28;20048;-73
2023/05/18 03:48:36;;;;;;;16.52;5.32;;;9.90;99.90;;;;;;5064352;28;20108;-73
2023/05/18 03:51:02;;;;;;;12.02;4.90;;;10.00;99.90;;;;;;5043458;28;20024;-74
2023/05/18 03:53:28;;;;;;;14.75;5.95;;;9.90;99.90;;;;;;5057506;28;20098;-74
2023/05/18 03:55:54;;;;;;;12.48;5.65;;;9.90;99.90;;;;;;5068138;28;20021;-73
2023/05/18 03:58:19;;;;;;;13.32;5.57;;;9.80;99.90;;;;;;5039121;28;20077;-73
2023/05/18 04:00:46;;;;;;;13.93;5.90;;;9.70;99.90;;;;;;5056531;28;20020;-74
2023/05/18 04:03:13;;;;;;;14.63;6.05;;;9.80;99.90;;;;;;5068165;28;20036;-73
2023/05/18 04:05:43;;;;;;;11.43;5.50;;;9.90;99.90;;;;;;5057294;28;20017;-73
2023/05/18 04:08:13;;;;;;;14.95;5.78;;;9.90;99.90;;;;;;5063294;28;20029;-73
2023/05/18 04:10:42;;;;;;;10.70;5.43;;;9.90;99.90;;;;;;5058491;28;20028;-73
2023/05/18 04:13:08;;;;;;;14.70;5.47;;;9.90;99.90;;;;;;5058140;28;20028;-73
2023/05/18 04:15:33;;;;;;;16.08;6.07;;;9.90;99.90;;;;;;5058804;28;20029;-74
2023/05/18 04:18:00;;;;;;;12.63;5.22;;;9.90;99.90;;;;;;5058902;28;20447;-74
2023/05/18 04:20:28;;;;;;;11.77;5.35;;;9.90;99.90;;;;;;5058526;28;20020;-73
2023/05/18 04:22:56;;;;;;;12.10;5.57;;;9.90;99.90;;;;;;5056419;28;20040;-73
2023/05/18 04:25:26;;;;;;;12.70;5.95;;;9.90;99.90;;;;;;5058759;28;20033;-73
2023/05/18 04:27:53;;;;;;;16.13;5.93;;;9.90;99.90;;;;;;5057175;28;20465;-73
2023/05/18 04:30:21;;;;;;;10.65;5.38;;;9.90;99.90;;;;;;5061586;28;20067;-74
2023/05/18 04:32:47;;;;;;;12.95;6.82;;;9.80;99.90;;;;;;5059113;28;20032;-73
2023/05/18 04:35:14;;;;;;;14.98;5.88;;;9.80;99.90;;;;;;5059526;28;20108;-73
2023/05/18 04:37:39;;;;;;;15.40;6.03;;;9.70;99.90;;;;;;5061849;28;20043;-74
2023/05/18 04:40:07;;;;;;;17.13;6.38;;;9.80;99.90;;;;;;5055026;28;20462;-73
2023/05/18 04:42:35;;;;;;;15.05;5.97;;;9.70;99.90;;;;;;5060387;28;20514;-73
2023/05/18 04:45:02;;;;;;;14.02;5.78;;;9.70;99.90;;;;;;5060306;28;20119;-73
2023/05/18 04:47:29;;;;;;;11.05;5.38;;;9.70;99.90;;;;;;5063326;28;20055;-73
2023/05/18 04:49:55;;;;;;;13.38;6.20;;;9.70;99.90;;;;;;5058758;28;20021;-73
2023/05/18 04:52:21;;;;;;;15.00;6.30;;;9.70;99.90;;;;;;5041715;28;20028;-73
2023/05/18 04:54:47;;;;;;;12.63;5.28;;;9.80;99.90;;;;;;5061434;28;20032;-73
2023/05/18 04:57:13;;;;;;;10.82;5.85;;;9.80;99.90;;;;;;5062317;28;20047;-73
2023/05/18 04:59:40;;;;;;;13.35;6.18;;;9.80;99.90;;;;;;5065694;28;20025;-73
2023/05/18 05:02:06;;;;;;;22.13;6.20;;;9.80;99.90;;;;;;5055692;28;20094;-73
2023/05/18 05:04:31;;;;;;;10.25;5.38;;;9.90;99.90;;;;;;5063135;28;20504;-73
2023/05/18 05:06:57;;;;;;;14.02;6.00;;;9.90;99.90;;;;;;5055617;28;20469;-73
2023/05/18 05:09:23;;;;;;;11.32;5.70;;;9.80;99.90;;;;;;5043918;28;20021;-73
2023/05/18 05:11:48;;;;;;;15.57;6.10;;;9.80;99.90;;;;;;5057094;28;20151;-73
2023/05/18 05:14:14;;;;;;;12.45;6.30;;;9.90;99.90;;;;;;5043753;28;20602;-73
2023/05/18 05:16:40;;;;;;;14.57;6.25;;;9.80;99.90;;;;;;5060981;28;20483;-73
2023/05/18 05:19:05;;;;;;;10.23;5.68;;;9.90;99.90;;;;;;5053927;28;20027;-74
2023/05/18 05:21:31;;;;;;;14.57;6.30;;;10.00;99.90;;;;;;5045524;28;20143;-74
2023/05/18 05:23:57;;;;;;;17.67;6.57;;;9.90;99.90;;;;;;5055953;28;20032;-73
2023/05/18 05:26:23;;;;;;;17.85;6.28;;;9.90;99.90;;;;;;5059559;28;20033;-73
2023/05/18 05:28:49;;;;;;;12.27;7.22;;;9.80;99.90;;;;;;5054876;28;20497;-73
2023/05/18 05:31:15;;;;;;;14.30;6.60;;;9.90;99.90;;;;;;5059742;28;20052;-73
2023/05/18 05:33:40;;;;;;;14.68;6.07;;;9.90;99.90;;;;;;5059332;28;20033;-73
2023/05/18 05:36:07;;;;;;;12.82;5.88;;;9.90;99.90;;;;;;5062002;28;20112;-73
2023/05/18 05:38:33;;;;;;;12.75;6.50;;;10.00;99.90;;;;;;5059565;28;20075;-73
2023/05/18 05:40:59;;;;;;;16.67;6.63;;;10.10;99.90;;;;;;5062115;28;20518;-74
2023/05/18 05:43:25;;;;;;;15.05;6.63;;;10.10;99.90;;;;;;5058871;28;20123;-73
2023/05/18 05:45:51;;;;;;;12.70;7.32;;;10.20;99.90;;;;;;5063038;28;20485;-73
2023/05/18 05:48:16;;;;;;;13.63;6.82;;;10.00;99.90;;;;;;5061306;28;20032;-73
2023/05/18 05:50:42;;;;;;;16.23;6.45;;;10.10;99.90;;;;;;5056489;28;20123;-73
2023/05/18 05:53:08;;;;;;;17.10;6.82;;;10.20;99.90;;;;;;5054343;28;20082;-73
2023/05/18 05:55:40;;;;;;;11.85;6.90;;;10.20;99.90;;;;;;5050951;28;20016;-73
2023/05/18 05:58:07;;;;;;;14.40;6.72;;;10.20;99.90;;;;;;5056405;28;20028;-73
2023/05/18 06:00:33;;;;;;;14.15;7.90;;;10.20;99.90;;;;;;5053371;28;20048;-73
2023/05/18 06:02:59;;;;;;;14.13;7.07;;;10.30;99.90;;;;;;5055004;28;20478;-73
2023/05/18 06:05:24;;;;;;;16.00;7.00;;;10.30;99.90;;;;;;5062349;28;20025;-73
2023/05/18 06:07:50;;;;;;;16.95;7.07;;;10.20;99.90;;;;;;5057608;28;20020;-73
2023/05/18 06:10:16;;;;;;;15.60;6.50;;;10.30;99.90;;;;;;5053947;28;20032;-73
2023/05/18 06:12:42;;;;;;;18.88;7.82;;;10.40;99.90;;;;;;5056595;28;20048;-73
2023/05/18 06:15:08;;;;;;;16.38;7.15;;;10.30;99.90;;;;;;5056641;28;20082;-73
2023/05/18 06:17:34;;;;;;;17.15;6.90;;;10.40;99.90;;;;;;5039576;28;20009;-73
2023/05/18 06:20:00;;;;;;;14.90;7.10;;;10.40;99.90;;;;;;5055929;28;20365;-73
2023/05/18 06:22:25;;;;;;;17.60;7.10;;;10.60;99.90;;;;;;5063236;28;20028;-73
2023/05/18 06:24:51;;;;;;;14.10;6.35;;;10.60;99.90;;;;;;5057567;28;20508;-74
2023/05/18 06:27:18;;;;;;;15.55;6.53;;;10.60;99.90;;;;;;5059428;28;20099;-73
2023/05/18 06:29:43;;;;;;;18.60;7.28;;;10.60;99.90;;;;;;5055979;28;20025;-73
2023/05/18 06:32:12;;;;;;;14.27;6.53;;;10.60;99.90;;;;;;5060226;28;20036;-73
2023/05/18 06:34:38;;;;;;;16.35;5.78;;;10.60;99.90;;;;;;5054014;28;20013;-73
2023/05/18 06:37:04;;;;;;;13.43;6.32;;;10.60;99.90;;;;;;5056245;28;20029;-73
2023/05/18 06:39:30;;;;;;;13.32;6.72;;;10.70;99.90;;;;;;5066898;28;20020;-74
2023/05/18 06:41:55;;;;;;;15.68;6.03;;;10.70;99.90;;;;;;5041584;28;20033;-73
2023/05/18 06:44:21;;;;;;;14.00;6.43;;;10.80;99.90;;;;;;5061652;28;20583;-74
2023/05/18 06:46:47;;;;;;;16.58;7.38;;;10.90;99.90;;;;;;5060621;28;20023;-73
2023/05/18 06:49:13;;;;;;;13.90;5.72;;;11.00;99.90;;;;;;5057117;28;20318;-73
2023/05/18 06:51:40;;;;;;;13.70;5.97;;;11.00;99.90;;;;;;5061666;28;20523;-74
2023/05/18 06:54:06;;;;;;;15.45;5.97;;;11.00;99.90;;;;;;5058921;28;20655;-74
2023/05/18 06:56:32;;;;;;;17.15;6.05;;;11.20;99.90;;;;;;5059769;28;20104;-74
2023/05/18 06:58:57;;;;;;;16.45;6.63;;;11.20;99.90;;;;;;5061079;28;20107;-74
2023/05/18 07:01:23;;;;;;;19.88;6.43;;;11.30;99.90;;;;;;5061323;28;20428;-74
2023/05/18 07:03:49;;;;;;;13.48;6.28;;;11.40;99.90;;;;;;5063198;28;20024;-74
2023/05/18 07:06:15;;;;;;;14.90;6.35;;;11.50;99.90;;;;;;5061933;28;20485;-74
2023/05/18 07:08:40;;;;;;;13.13;5.78;;;11.50;99.90;;;;;;5062432;28;20056;-74
2023/05/18 07:11:06;;;;;;;15.55;5.90;;;11.70;99.90;;;;;;5058067;28;20021;-74
2023/05/18 07:13:32;;;;;;;16.02;6.45;;;11.60;99.90;;;;;;5061895;28;20396;-74
2023/05/18 07:15:58;;;;;;;10.57;5.65;;;11.60;99.90;;;;;;5065147;28;20035;-74
2023/05/18 07:18:23;;;;;;;12.85;6.53;;;11.80;99.90;;;;;;5041840;28;20032;-74
2023/05/18 07:20:49;;;;;;;14.73;6.93;;;11.90;99.90;;;;;;5057648;28;20041;-74
2023/05/18 07:23:15;;;;;;;13.50;7.28;;;12.00;99.90;;;;;;5062220;28;20032;-75
2023/05/18 07:25:41;;;;;;;14.60;6.25;;;11.90;99.90;;;;;;5060206;28;20033;-75
2023/05/18 07:28:06;;;;;;;19.77;7.00;;;12.10;99.90;;;;;;5059756;28;20033;-74
2023/05/18 07:30:32;;;;;;;25.50;7.05;;;12.20;99.90;;;;;;5060715;28;20477;-74
2023/05/18 07:32:58;;;;;;;20.30;7.07;;;12.20;99.90;;;;;;5041946;28;20021;-74
2023/05/18 07:35:25;;;;;;;13.70;6.07;;;12.30;99.90;;;;;;5063522;28;20497;-75
2023/05/18 07:37:52;;;;;;;14.05;5.50;;;12.60;99.90;;;;;;5058878;28;20028;-74
2023/05/18 07:40:18;;;;;;;14.68;6.35;;;12.70;99.90;;;;;;5059905;28;20036;-74
2023/05/18 07:42:44;;;;;;;22.73;6.22;;;12.80;99.90;;;;;;5058447;28;20028;-75
2023/05/18 07:45:11;;;;;;;16.65;6.72;;;12.90;99.90;;;;;;5058557;28;20389;-74
2023/05/18 07:47:37;;;;;;;15.13;5.82;;;13.00;99.90;;;;;;5065337;28;20025;-74
2023/05/18 07:50:03;;;;;;;14.98;6.10;;;13.20;99.90;;;;;;5045803;28;20014;-75
2023/05/18 07:52:28;;;;;;;13.23;6.70;;;13.30;99.90;;;;;;5058410;28;20096;-74
2023/05/18 07:54:55;;;;;;;17.15;5.90;;;13.30;99.90;;;;;;5056716;28;20032;-75
2023/05/18 07:57:21;;;;;;;10.93;6.05;;;13.30;99.90;;;;;;5058290;28;20025;-74
2023/05/18 07:59:47;;;;;;;16.73;6.75;;;13.30;99.90;;;;;;5058380;28;20035;-74
2023/05/18 08:02:15;;;;;;;13.80;5.30;;;13.40;99.90;;;;;;5067595;28;20021;-74
2023/05/18 08:04:41;;;;;;;14.57;6.43;;;13.40;99.90;;;;;;5041558;28;20029;-76
2023/05/18 08:07:07;;;;;;;13.38;7.03;;;13.60;99.90;;;;;;5060789;28;20071;-73
2023/05/18 08:09:33;;;;;;;9.88;6.65;;;13.60;99.90;;;;;;5061270;28;20016;-74
2023/05/18 08:11:59;;;;;;;14.82;6.90;;;13.70;99.90;;;;;;5058299;28;20025;-76
2023/05/18 08:14:25;;;;;;;16.42;7.40;;;13.80;99.90;;;;;;5062173;28;20059;-74
2023/05/18 08:16:51;;;;;;;11.07;5.63;;;13.90;99.90;;;;;;5058681;28;20029;-75
2023/05/18 08:19:16;;;;;;;15.40;6.80;;;14.10;99.90;;;;;;5064582;28;20039;-75
2023/05/18 08:21:44;;;;;;;18.95;6.72;;;14.10;99.90;;;;;;5059288;28;20028;-75
2023/05/18 08:24:10;;;;;;;16.13;6.80;;;14.20;99.90;;;;;;5057080;28;20071;-76
2023/05/18 08:26:36;;;;;;;16.75;6.57;;;14.30;99.90;;;;;;5063606;28;20052;-76
2023/05/18 08:29:08;;;;;;;12.75;5.53;;;14.30;99.90;;;;;;5057166;28;20036;-76
2023/05/18 08:31:38;;;;;;;14.25;6.13;;;14.20;99.90;;;;;;5062819;28;20471;-76
2023/05/18 08:34:04;;;;;;;16.67;6.22;;;14.30;99.90;;;;;;5063053;28;20033;-77
2023/05/18 08:36:34;;;;;;;13.85;5.70;;;14.40;99.90;;;;;;5062189;28;20492;-78
2023/05/18 08:39:01;;;;;;;13.73;6.47;;;14.70;99.90;;;;;;5059237;28;20128;-75
2023/05/18 08:41:39;;;;;;;14.77;6.10;;;14.90;99.90;;;;;;5057732;28;20021;-75
2023/05/18 08:44:19;;;;;;;9.27;5.32;;;15.00;99.90;;;;;;5057344;28;20394;-77
2023/05/18 08:46:49;;;;;;;15.82;5.13;;;15.40;99.90;;;;;;5061399;28;20525;-75
2023/05/18 08:49:17;;;;;;;15.40;6.43;;;15.60;99.90;;;;;;5056967;28;20032;-76
2023/05/18 08:51:45;;;;;;;14.50;5.57;;;15.90;99.90;;;;;;5057462;28;20028;-75
2023/05/18 08:54:17;;;;;;;16.63;5.38;;;16.10;99.90;;;;;;5061139;28;20132;-76
2023/05/18 08:56:45;;;;;;;11.55;4.60;;;16.00;99.90;;;;;;5058159;28;20025;-76
2023/05/18 08:59:11;;;;;;;10.52;4.80;;;16.30;99.90;;;;;;5061304;28;20549;-76
2023/05/18 09:01:37;;;;;;;10.40;4.10;;;16.30;99.90;;;;;;5057186;28;20036;-76
2023/05/18 09:04:04;;;;;;;14.68;4.60;;;16.40;99.90;;;;;;5056742;28;20124;-76
2023/05/18 09:06:33;;;;;;;11.38;4.00;;;16.30;99.90;;;;;;5059544;28;20024;-77
2023/05/18 09:09:03;;;;;;;16.08;5.10;;;16.20;99.90;;;;;;5057770;28;20456;-75
2023/05/18 09:11:30;;;;;;;14.45;4.88;;;16.20;99.90;;;;;;5058624;28;20375;-78
2023/05/18 09:13:58;;;;;;;11.93;5.38;;;16.00;99.90;;;;;;5057622;28;20055;-76
2023/05/18 09:16:24;;;;;;;8.07;4.32;;;15.80;99.90;;;;;;5049748;28;20477;-76
2023/05/18 09:18:50;;;;;;;15.85;5.35;;;15.70;99.90;;;;;;5060875;28;20039;-76
2023/05/18 09:21:16;;;;;;;9.68;5.65;;;15.80;99.90;;;;;;5057312;28;20035;-76
2023/05/18 09:23:43;;;;;;;10.93;4.65;;;16.00;99.90;;;;;;5063708;28;20040;-75
2023/05/18 09:26:10;;;;;;;11.80;4.72;;;16.20;99.90;;;;;;5056119;28;20021;-76
2023/05/18 09:28:44;;;;;;;10.00;4.55;;;16.10;99.90;;;;;;5058023;28;20085;-77
2023/05/18 09:31:16;;;;;;;11.30;4.43;;;16.40;99.90;;;;;;5056585;28;20017;-77
2023/05/18 09:33:43;;;;;;;20.08;4.68;;;16.70;99.90;;;;;;5056613;28;20548;-77
2023/05/18 09:36:11;;;;;;;16.15;4.50;;;16.80;99.90;;;;;;5063466;28;20064;-77
2023/05/18 09:38:38;;;;;;;10.40;4.22;;;16.80;99.90;;;;;;5058841;28;20483;-75
2023/05/18 09:41:10;;;;;;;12.80;3.47;;;17.00;99.90;;;;;;5056285;28;20489;-76
2023/05/18 09:43:35;;;;;;;14.65;3.60;;;17.10;99.90;;;;;;5065986;28;20607;-76
2023/05/18 09:46:08;;;;;;;12.30;4.13;;;17.40;99.90;;;;;;5056436;28;20115;-77
2023/05/18 09:48:47;;;;;;;11.88;4.28;;;17.60;99.90;;;;;;5061833;28;20082;-76
2023/05/18 09:51:17;;;;;;;9.93;4.15;;;17.40;99.90;;;;;;5046001;28;20162;-76
2023/05/18 09:53:56;;;;;;;13.05;3.95;;;17.10;99.90;;;;;;5053312;28;22511;-76
2023/05/18 09:56:23;;;;;;;16.17;5.25;;;17.00;99.90;;;;;;5058677;28;20060;-79
2023/05/18 09:58:49;;;;;;;10.45;4.22;;;17.40;99.90;;;;;;5027434;28;20021;-76
2023/05/18 10:01:15;;;;;;;15.65;4.32;;;17.60;99.90;;;;;;5051329;28;20050;-76
2023/05/18 10:03:40;;;;;;;13.95;4.95;;;17.70;99.90;;;;;;5050292;28;20497;-76
2023/05/18 10:06:08;;;;;;;8.93;3.17;;;17.60;99.90;;;;;;5050732;28;20079;-76
2023/05/18 10:08:35;;;;;;;11.00;4.28;;;17.70;99.90;;;;;;5051299;28;20070;-75
2023/05/18 10:11:01;;;;;;;13.95;4.85;;;17.50;99.90;;;;;;5053812;28;20017;-76
2023/05/18 10:13:30;;;;;;;9.77;4.03;;;17.30;99.90;;;;;;5050387;28;20021;-76
2023/05/18 10:15:58;;;;;;;13.75;4.32;;;17.30;99.90;;;;;;5050370;28;20017;-75
2023/05/18 10:18:25;;;;;;;10.30;4.50;;;17.10;99.90;;;;;;5058018;28;20163;-77
2023/05/18 10:20:53;;;;;;;9.70;3.85;;;16.90;99.90;;;;;;5055856;28;20055;-77
2023/05/18 10:23:20;;;;;;;16.13;4.05;;;17.00;99.90;;;;;;5053007;28;20129;-76
2023/05/18 10:25:48;;;;;;;9.45;3.95;;;17.10;99.90;;;;;;5054255;28;20029;-78
2023/05/18 10:28:26;;;;;;;9.20;3.72;;;17.10;99.90;;;;;;5035811;28;20401;-76
2023/05/18 10:30:56;;;;;;;13.07;4.53;;;17.40;99.90;;;;;;5049368;28;20036;-76
2023/05/18 10:33:23;;;;;;;13.52;4.35;;;17.60;99.90;;;;;;5056065;28;20017;-75
2023/05/18 10:35:50;;;;;;;15.00;4.35;;;17.60;99.90;;;;;;5056618;28;20525;-76
2023/05/18 10:38:25;;;;;;;17.67;3.92;;;17.70;99.90;;;;;;5055752;28;20028;-76
2023/05/18 10:40:57;;;;;;;12.65;3.72;;;17.60;99.90;;;;;;5051172;28;20547;-77
2023/05/18 10:43:26;;;;;;;15.40;3.97;;;17.50;99.90;;;;;;5053757;28;20637;-76
2023/05/18 10:45:57;;;;;;;11.43;4.13;;;17.40;99.90;;;;;;5052356;28;20028;-76
2023/05/18 10:48:23;;;;;;;9.68;3.78;;;17.40;99.90;;;;;;5054160;28;20481;-78
2023/05/18 10:50:51;;;;;;;14.02;4.72;;;17.30;99.90;;;;;;5054564;28;20025;-78
2023/05/18 10:53:19;;;;;;;17.15;5.60;;;17.50;99.90;;;;;;5056563;28;20025;-77
2023/05/18 10:55:47;;;;;;;10.10;4.57;;;17.40;99.90;;;;;;5055822;28;20207;-76
2023/05/18 10:58:15;;;;;;;11.70;4.40;;;17.50;99.90;;;;;;5053344;28;20056;-78
2023/05/18 11:01:03;;;;;;;12.15;5.20;;;17.60;99.90;;;;;;5054424;28;20012;-78
2023/05/18 11:03:31;;;;;;;9.35;4.32;;;17.70;99.90;;;;;;5057977;28;20083;-77
2023/05/18 11:06:09;;;;;;;11.15;4.05;;;17.80;99.90;;;;;;5041703;28;20362;-76
2023/05/18 11:08:55;;;;;;;11.70;4.57;;;17.60;99.90;;;;;;5053327;28;20017;-77
2023/05/18 11:11:28;;;;;;;13.05;4.07;;;17.80;99.90;;;;;;5053968;28;20040;-78
2023/05/18 11:14:00;;;;;;;11.70;5.05;;;17.70;99.90;;;;;;5054309;28;20039;-77
2023/05/18 11:16:34;;;;;;;8.75;4.32;;;17.60;99.90;;;;;;5051770;28;20086;-76
2023/05/18 11:19:11;;;;;;;12.65;5.60;;;17.60;99.90;;;;;;5053475;28;20025;-76
2023/05/18 11:21:40;;;;;;;11.68;4.75;;;17.80;99.90;;;;;;5053447;28;20528;-77
2023/05/18 11:24:31;;;;;;;12.07;4.60;;;18.00;99.90;;;;;;5054921;28;20044;-78
2023/05/18 11:27:07;;;;;;;12.80;4.65;;;18.20;99.90;;;;;;5051432;28;20036;-78
2023/05/18 11:29:36;;;;;;;9.00;4.50;;;18.60;99.90;;;;;;5060320;28;20018;-77
2023/05/18 11:32:02;;;;;;;10.10;4.65;;;18.60;99.90;;;;;;5056137;28;20515;-78
2023/05/18 11:34:51;;;;;;;11.23;4.45;;;18.30;99.90;;;;;;5053337;28;20017;-78
2023/05/18 11:37:38;;;;;;;12.20;4.47;;;18.30;99.90;;;;;;5056541;28;20380;-77
2023/05/18 11:40:08;;;;;;;9.70;4.53;;;18.40;99.90;;;;;;5054122;28;20100;-79
2023/05/18 11:42:34;;;;;;;9.13;3.97;;;18.80;99.90;;;;;;5057112;28;20044;-78
2023/05/18 11:45:11;;;;;;;11.48;5.35;;;19.00;99.90;;;;;;5036789;28;20433;-77
2023/05/18 11:47:40;;;;;;;11.48;3.78;;;18.90;99.90;;;;;;5034920;28;20029;-76
2023/05/18 11:50:08;;;;;;;10.02;4.90;;;19.20;99.90;;;;;;5055802;28;20025;-77
2023/05/18 11:52:45;;;;;;;17.38;5.68;;;18.90;99.90;;;;;;5055868;28;20418;-81
2023/05/18 11:55:17;;;;;;;12.98;4.78;;;19.10;99.90;;;;;;5057845;28;20017;-77
2023/05/18 11:57:46;;;;;;;9.10;4.60;;;19.40;99.90;;;;;;5056970;28;20077;-77
2023/05/18 12:00:14;;;;;;;11.13;4.63;;;19.20;99.90;;;;;;5052967;28;20021;-78
2023/05/18 12:02:45;;;;;;;11.82;4.78;;;19.40;99.50;;;;;;5056240;28;20040;-77
2023/05/18 12:05:11;;;;;;;10.50;4.25;;;19.40;99.80;;;;;;5051561;28;20151;-79
2023/05/18 12:07:38;;;;;;;11.60;5.22;;;19.30;99.80;;;;;;5052878;28;20016;-77
2023/05/18 12:10:08;;;;;;;6.82;4.50;;;19.50;99.20;;;;;;5052442;28;20033;-78
2023/05/18 12:12:34;;;;;;;11.70;4.70;;;19.30;99.50;;;;;;5038702;28;20060;-77
2023/05/18 12:15:04;;;;;;;10.02;4.43;;;19.40;99.70;;;;;;5052887;28;20481;-76
2023/05/18 12:17:44;;;;;;;12.43;4.50;;;19.50;99.60;;;;;;5054723;28;20017;-76
2023/05/18 12:20:11;;;;;;;8.60;4.28;;;19.50;99.90;;;;;;5052165;28;20035;-76
2023/05/18 12:22:52;;;;;;;8.20;4.80;;;19.50;99.90;;;;;;5058176;28;20037;-77
2023/05/18 12:25:20;;;;;;;8.30;4.28;;;19.40;99.90;;;;;;5052709;28;20023;-77
2023/05/18 12:27:49;;;;;;;9.07;4.78;;;19.60;99.90;;;;;;5052415;28;20016;-76
2023/05/18 12:30:14;;;;;;;13.07;8.13;;;19.30;99.20;;;;;;5053761;28;20496;-76
2023/05/18 12:32:53;;;;;;;15.70;4.57;;;19.70;99.70;;;;;;5054162;28;20024;-77
2023/05/18 12:35:26;;;;;;;16.80;5.78;;;19.80;99.90;;;;;;5052172;28;20032;-75
2023/05/18 12:38:00;;;;;;;12.05;4.45;;;19.80;99.20;;;;;;5056535;28;20040;-75
2023/05/18 12:40:26;;;;;;;11.23;3.85;;;19.80;99.50;;;;;;5052132;28;20021;-75
2023/05/18 12:42:59;;;;;;;11.73;4.53;;;19.80;99.00;;;;;;5056410;28;20025;-76